Terminal Aerodrome Forecast
Issued by NWS

Current Version | Previous Version | Text Only | Print | Product List | Glossary On
Versions: 1 2 3 4 5 6 7 8 9 10 11 12 13 14 15 16 17 18 19 20 21 22 23 24 25 26 27 28 29 30 31 32 33 34 35 36 37 38 39 40 41 42
000
FTAK31 PANC 060225 AAA
TAFADQ
TAF AMD
PADQ 060225Z 0602/0624 29006KT P6SM SCT030 BKN050
      TEMPO 0602/0606 BKN030
     FM061200 27004KT P6SM FEW035 SCT070 BKN120
     FM062100 19010KT P6SM FEW050 BKN100=

USA.gov is the U.S. government's official web portal to all federal, state and local government web resources and services.